createdAt,value
2019-04-10T00:02:21.721Z,28.60
2019-04-10T00:04:54.300Z,28.60
2019-04-10T00:07:26.872Z,28.60
2019-04-10T00:09:59.581Z,28.70
2019-04-10T00:12:31.805Z,28.70
2019-04-10T00:15:05.051Z,28.70
2019-04-10T00:17:37.543Z,28.70
2019-04-10T00:20:09.941Z,28.70
2019-04-10T00:22:42.565Z,28.70
2019-04-10T00:25:15.643Z,28.80
2019-04-10T00:27:47.707Z,28.80
2019-04-10T00:30:20.771Z,28.80
2019-04-10T00:32:54.437Z,28.80
2019-04-10T00:35:27.412Z,28.90
2019-04-10T00:38:01.640Z,28.90
2019-04-10T00:40:35.270Z,28.90
2019-04-10T00:43:08.669Z,28.90
2019-04-10T00:45:41.854Z,29.00
2019-04-10T00:48:15.503Z,29.00
2019-04-10T00:50:57.101Z,29.10
2019-04-10T00:53:29.553Z,29.10
2019-04-10T00:56:01.950Z,29.20
2019-04-10T00:58:35.251Z,29.20
2019-04-10T01:01:07.888Z,29.30
2019-04-10T01:03:42.084Z,29.30
2019-04-10T01:06:16.483Z,29.30
2019-04-10T01:08:49.012Z,29.40
2019-04-10T01:11:21.139Z,29.40
2019-04-10T01:13:53.744Z,29.50
2019-04-10T01:16:28.955Z,29.50
2019-04-10T01:19:07.880Z,29.60
2019-04-10T01:21:40.304Z,29.60
2019-04-10T01:24:13.173Z,29.70
2019-04-10T01:26:45.561Z,29.80
2019-04-10T01:29:19.590Z,29.80
2019-04-10T01:32:13.002Z,29.90
2019-04-10T01:34:45.804Z,29.90
2019-04-10T01:37:18.744Z,30.00
2019-04-10T01:39:52.804Z,30.10
2019-04-10T01:42:25.183Z,30.20
2019-04-10T01:44:57.553Z,30.20
2019-04-10T01:47:29.596Z,30.30
2019-04-10T01:50:02.336Z,30.40
2019-04-10T01:52:35.380Z,30.50
2019-04-10T01:55:20.071Z,30.50
2019-04-10T01:57:42.542Z,30.60
2019-04-10T02:00:35.444Z,30.70
2019-04-10T02:03:08.474Z,30.80
2019-04-10T02:05:40.869Z,30.90
2019-04-10T02:08:15.939Z,30.90
2019-04-10T02:10:48.082Z,31.00
2019-04-10T02:13:20.231Z,31.00
2019-04-10T02:15:52.657Z,31.00
2019-04-10T02:18:25.515Z,31.10
2019-04-10T02:20:57.548Z,31.20
2019-04-10T02:23:30.242Z,31.20
2019-04-10T02:26:03.259Z,31.30
2019-04-10T02:28:39.450Z,31.40
2019-04-10T02:31:12.529Z,31.40
2019-04-10T02:33:45.130Z,31.40
2019-04-10T02:36:17.420Z,31.50
2019-04-10T02:39:01.988Z,31.50
2019-04-10T02:41:25.524Z,31.60
2019-04-10T02:43:58.056Z,31.80
2019-04-10T02:46:51.770Z,31.90
2019-04-10T02:49:24.783Z,32.00
2019-04-10T02:51:57.127Z,32.20
2019-04-10T02:54:29.181Z,32.30
2019-04-10T02:57:05.499Z,32.30
2019-04-10T02:59:37.757Z,32.40
2019-04-10T03:02:09.847Z,32.40
2019-04-10T03:04:53.178Z,32.60
2019-04-10T03:07:25.915Z,32.70
2019-04-10T03:10:10.248Z,32.80
2019-04-10T03:12:52.612Z,32.90
2019-04-10T03:15:25.275Z,33.00
2019-04-10T03:17:57.130Z,33.10
2019-04-10T03:20:48.794Z,33.20
2019-04-10T03:23:21.151Z,33.30
2019-04-10T03:25:53.316Z,33.40
2019-04-10T03:28:27.088Z,33.50
2019-04-10T03:31:02.276Z,33.60
2019-04-10T03:33:37.579Z,33.70
2019-04-10T03:36:09.516Z,33.80
2019-04-10T03:38:54.230Z,33.80
2019-04-10T03:41:15.943Z,33.90
2019-04-10T03:43:50.091Z,34.00
2019-04-10T03:46:22.313Z,34.10
2019-04-10T03:48:55.571Z,34.20
2019-04-10T03:51:28.312Z,34.20
2019-04-10T03:54:06.927Z,34.20
2019-04-10T03:56:40.145Z,34.20
2019-04-10T03:59:12.291Z,34.30
2019-04-10T04:01:53.450Z,34.40
2019-04-10T04:04:25.938Z,34.40
2019-04-10T04:06:58.595Z,34.40
2019-04-10T04:09:31.363Z,34.40
2019-04-10T04:12:04.422Z,34.50
2019-04-10T04:14:40.812Z,34.60
2019-04-10T04:17:13.652Z,34.70
2019-04-10T04:19:46.292Z,34.70
2019-04-10T04:22:20.875Z,34.70
2019-04-10T04:25:00.263Z,34.70
2019-04-10T04:27:33.573Z,34.80
2019-04-10T04:30:08.443Z,34.90
2019-04-10T04:32:41.869Z,34.90
2019-04-10T04:35:13.972Z,35.10
2019-04-10T04:37:46.353Z,35.30
2019-04-10T04:40:19.690Z,35.40
2019-04-10T04:42:53.589Z,35.50
2019-04-10T04:45:26.313Z,35.60
2019-04-10T04:47:59.721Z,35.70
2019-04-10T04:50:31.821Z,35.80
2019-04-10T04:53:14.249Z,35.90
2019-04-10T04:56:07.396Z,36.00
2019-04-10T04:58:40.651Z,36.10
2019-04-10T05:01:12.739Z,36.20
2019-04-10T05:03:44.865Z,36.30
2019-04-10T05:06:18.069Z,36.40
2019-04-10T05:08:51.284Z,36.40
2019-04-10T05:11:24.487Z,36.50
2019-04-10T05:13:59.604Z,36.60
2019-04-10T05:16:31.369Z,36.70
2019-04-10T05:19:03.794Z,36.80
2019-04-10T05:21:37.294Z,36.90
2019-04-10T05:24:09.820Z,37.00
2019-04-10T05:26:43.464Z,37.20
2019-04-10T05:29:15.488Z,37.30
2019-04-10T05:31:47.698Z,37.40
2019-04-10T05:34:22.015Z,37.50
2019-04-10T05:36:54.656Z,37.50
2019-04-10T05:39:39.255Z,37.60
2019-04-10T05:42:02.394Z,37.70
2019-04-10T05:44:36.311Z,37.70
2019-04-10T05:47:10.188Z,37.70
2019-04-10T05:49:42.783Z,37.80
2019-04-10T05:52:14.930Z,37.90
2019-04-10T05:54:47.274Z,38.00
2019-04-10T05:57:20.156Z,38.00
2019-04-10T05:59:53.104Z,38.00
2019-04-10T06:02:26.944Z,38.00
2019-04-10T06:04:59.994Z,37.90
2019-04-10T06:07:32.868Z,37.80
2019-04-10T06:10:09.040Z,37.60
2019-04-10T06:12:39.600Z,37.50
2019-04-10T06:15:12.829Z,37.30
2019-04-10T06:17:46.827Z,37.20
2019-04-10T06:20:21.320Z,37.20
2019-04-10T06:22:54.791Z,37.20
2019-04-10T06:25:28.465Z,37.30
2019-04-10T06:28:03.131Z,37.40
2019-04-10T06:30:37.277Z,37.50
2019-04-10T06:33:09.789Z,37.60
2019-04-10T06:35:41.603Z,37.70
2019-04-10T06:38:14.760Z,37.70
2019-04-10T06:40:48.173Z,37.60
2019-04-10T06:43:22.236Z,37.60
2019-04-10T06:45:55.828Z,37.40
2019-04-10T06:48:28.042Z,37.30
2019-04-10T06:51:00.026Z,37.20
2019-04-10T06:53:33.191Z,37.10
2019-04-10T06:56:05.307Z,37.20
2019-04-10T06:58:38.905Z,37.30
2019-04-10T07:01:10.875Z,37.40
2019-04-10T07:03:52.760Z,37.30
2019-04-10T07:06:21.642Z,37.40
2019-04-10T07:08:53.295Z,37.40
2019-04-10T07:11:29.227Z,37.50
2019-04-10T07:13:59.790Z,37.50
2019-04-10T07:16:34.029Z,37.70
2019-04-10T07:19:09.839Z,37.80
2019-04-10T07:21:40.571Z,37.90
2019-04-10T07:24:15.011Z,38.00
2019-04-10T07:26:49.013Z,38.00
2019-04-10T07:29:26.178Z,38.10
2019-04-10T07:31:55.273Z,38.20
2019-04-10T07:34:29.762Z,38.30
2019-04-10T07:37:00.982Z,38.40
2019-04-10T07:39:34.094Z,38.60
2019-04-10T07:42:07.510Z,38.70
2019-04-10T07:44:43.517Z,38.80
2019-04-10T07:47:35.634Z,38.90
2019-04-10T07:50:10.343Z,39.00
2019-04-10T07:52:43.709Z,39.00
2019-04-10T07:55:16.896Z,39.00
2019-04-10T07:57:50.662Z,39.00
2019-04-10T08:00:22.933Z,39.10
2019-04-10T08:02:55.327Z,39.00
2019-04-10T08:05:34.040Z,39.00
2019-04-10T08:08:06.210Z,38.90
2019-04-10T08:10:38.429Z,38.90
2019-04-10T08:13:12.061Z,38.80
2019-04-10T08:15:45.383Z,38.80
2019-04-10T08:18:18.938Z,38.90
2019-04-10T08:20:51.271Z,38.90
2019-04-10T08:23:24.002Z,39.00
2019-04-10T08:25:56.248Z,39.10
2019-04-10T08:28:30.528Z,39.10
2019-04-10T08:31:04.315Z,39.00
2019-04-10T08:33:36.722Z,38.90
2019-04-10T08:36:09.121Z,38.90
2019-04-10T08:38:42.128Z,38.90
2019-04-10T08:41:14.398Z,38.90
2019-04-10T08:43:46.676Z,38.80
2019-04-10T08:46:23.934Z,38.80
2019-04-10T08:48:58.001Z,38.80
2019-04-10T08:51:31.076Z,38.80
2019-04-10T08:54:04.455Z,38.90
2019-04-10T08:56:36.828Z,38.90
2019-04-10T08:59:17.280Z,38.90
2019-04-10T09:01:50.916Z,38.70
2019-04-10T09:04:23.269Z,38.60
2019-04-10T09:06:55.819Z,38.60
2019-04-10T09:09:28.202Z,38.60
2019-04-10T09:12:00.486Z,38.50
2019-04-10T09:14:32.939Z,38.40
2019-04-10T09:17:04.999Z,38.30
2019-04-10T09:19:38.157Z,38.30
2019-04-10T09:22:10.361Z,38.30
2019-04-10T09:24:49.037Z,38.20
2019-04-10T09:27:21.364Z,38.30
2019-04-10T09:30:02.788Z,38.30
2019-04-10T09:32:35.501Z,38.30
2019-04-10T09:35:10.685Z,38.20
2019-04-10T09:37:43.056Z,38.20
2019-04-10T09:40:18.319Z,38.20
2019-04-10T09:42:50.473Z,38.30
2019-04-10T09:45:24.972Z,38.30
2019-04-10T09:47:56.383Z,38.30
2019-04-10T09:50:31.141Z,38.40
2019-04-10T09:53:04.096Z,38.40
2019-04-10T09:55:36.437Z,38.60
2019-04-10T09:58:08.518Z,38.60
2019-04-10T10:00:40.731Z,38.70
2019-04-10T10:03:13.475Z,38.80
2019-04-10T10:05:46.677Z,38.80
2019-04-10T10:08:19.069Z,38.80
2019-04-10T10:10:51.528Z,38.80
2019-04-10T10:13:23.595Z,38.70
2019-04-10T10:15:56.823Z,38.60
2019-04-10T10:18:29.745Z,38.50
2019-04-10T10:21:01.976Z,38.40
2019-04-10T10:23:36.059Z,38.30
2019-04-10T10:26:09.911Z,38.20
2019-04-10T10:28:42.948Z,38.20
2019-04-10T10:31:26.279Z,38.10
2019-04-10T10:33:59.581Z,38.00
2019-04-10T10:36:40.633Z,37.90
2019-04-10T10:39:11.981Z,37.70
2019-04-10T10:41:47.029Z,37.60
2019-04-10T10:44:19.133Z,37.50
2019-04-10T10:46:51.659Z,37.40
2019-04-10T10:49:24.428Z,37.30
2019-04-10T10:51:57.278Z,37.20
2019-04-10T10:54:29.526Z,37.10
2019-04-10T10:57:09.503Z,37.20
2019-04-10T10:59:41.880Z,37.10
2019-04-10T11:02:14.043Z,37.10
2019-04-10T11:04:46.170Z,37.10
2019-04-10T11:07:18.723Z,37.10
2019-04-10T11:10:01.588Z,37.00
2019-04-10T11:12:35.543Z,37.00
2019-04-10T11:15:10.261Z,36.90
2019-04-10T11:17:42.517Z,36.90
2019-04-10T11:20:17.825Z,36.70
2019-04-10T11:22:50.238Z,36.70
2019-04-10T11:25:24.106Z,36.50
2019-04-10T11:27:58.357Z,36.40
2019-04-10T11:30:32.387Z,36.30
2019-04-10T11:33:06.081Z,36.20
2019-04-10T11:35:45.913Z,36.10
2019-04-10T11:38:37.477Z,36.00
2019-04-10T11:41:30.822Z,35.90
2019-04-10T11:44:02.899Z,35.80
2019-04-10T11:46:37.958Z,35.70
2019-04-10T11:49:13.020Z,35.60
2019-04-10T11:51:55.792Z,35.60
2019-04-10T11:54:28.558Z,35.50
2019-04-10T11:57:04.154Z,35.40
2019-04-10T11:59:36.664Z,35.30
2019-04-10T12:02:10.229Z,35.30
2019-04-10T12:07:52.987Z,35.10
2019-04-10T12:12:28.368Z,35.00
2019-04-10T12:15:00.321Z,34.90
2019-04-10T12:17:32.119Z,34.90
2019-04-10T12:20:04.892Z,34.80
2019-04-10T12:22:37.911Z,34.80
2019-04-10T12:25:10.651Z,34.80
2019-04-10T12:27:42.578Z,34.80
2019-04-10T12:30:15.533Z,34.70
2019-04-10T12:32:47.548Z,34.70
2019-04-10T12:35:22.700Z,34.60
2019-04-10T12:38:02.451Z,34.60
2019-04-10T12:40:30.818Z,34.60
2019-04-10T12:43:03.684Z,34.50
2019-04-10T12:45:36.096Z,34.50
2019-04-10T12:48:08.402Z,34.40
2019-04-10T12:50:41.287Z,34.30
2019-04-10T12:53:13.615Z,34.20
2019-04-10T12:55:45.991Z,34.20
2019-04-10T12:58:19.244Z,34.10
2019-04-10T13:00:52.528Z,34.00
2019-04-10T13:03:25.131Z,33.90
2019-04-10T13:05:59.743Z,33.90
2019-04-10T13:08:50.881Z,33.80
2019-04-10T13:11:08.486Z,33.80
2019-04-10T13:13:42.201Z,33.80
2019-04-10T13:16:14.685Z,33.70
2019-04-10T13:18:46.889Z,33.70
2019-04-10T13:21:20.147Z,33.70
2019-04-10T13:23:53.071Z,33.60
2019-04-10T13:26:26.008Z,33.60
2019-04-10T13:28:58.750Z,33.60
2019-04-10T13:31:30.831Z,33.50
2019-04-10T13:34:11.605Z,33.50
2019-04-10T13:36:44.068Z,33.50
2019-04-10T13:39:19.282Z,33.50
2019-04-10T13:41:54.744Z,33.40
2019-04-10T13:44:26.637Z,33.50
2019-04-10T13:47:02.777Z,33.40
2019-04-10T13:49:35.730Z,33.40
2019-04-10T13:52:08.280Z,33.40
2019-04-10T13:54:41.041Z,33.40
2019-04-10T13:57:14.617Z,33.40
2019-04-10T13:59:46.961Z,33.30
2019-04-10T14:02:21.504Z,33.30
2019-04-10T14:04:53.600Z,33.30
2019-04-10T14:07:26.598Z,33.30
2019-04-10T14:09:58.694Z,33.30
2019-04-10T14:12:31.235Z,33.30
2019-04-10T14:15:04.914Z,33.30
2019-04-10T14:17:40.064Z,33.30
2019-04-10T14:20:13.596Z,33.40
2019-04-10T14:22:48.160Z,33.40
2019-04-10T14:25:21.804Z,33.40
2019-04-10T14:27:54.400Z,33.40
2019-04-10T14:30:27.948Z,33.30
2019-04-10T14:33:00.876Z,33.30
2019-04-10T14:35:33.579Z,33.30
2019-04-10T14:38:06.640Z,33.30
2019-04-10T14:40:40.533Z,33.30
2019-04-10T14:43:16.771Z,33.30
2019-04-10T14:45:49.960Z,33.20
2019-04-10T14:48:23.140Z,33.20
2019-04-10T14:50:56.272Z,33.20
2019-04-10T14:53:31.778Z,33.20
2019-04-10T14:56:06.751Z,33.10
2019-04-10T14:58:39.187Z,33.10
2019-04-10T15:01:13.606Z,33.10
2019-04-10T15:03:46.717Z,33.00
2019-04-10T15:06:20.504Z,33.00
2019-04-10T15:08:52.486Z,33.00
2019-04-10T15:11:24.780Z,33.00
2019-04-10T15:13:57.213Z,33.00
2019-04-10T15:16:31.607Z,33.00
2019-04-10T15:19:04.514Z,32.90
2019-04-10T15:21:37.048Z,32.90
2019-04-10T15:24:09.287Z,32.80
2019-04-10T15:26:41.522Z,32.80
2019-04-10T15:29:14.252Z,32.80
2019-04-10T15:31:46.191Z,32.80
2019-04-10T15:34:18.481Z,32.70
2019-04-10T15:36:50.847Z,32.70
2019-04-10T15:39:32.126Z,32.70
2019-04-10T15:41:58.147Z,32.60
2019-04-10T15:44:30.301Z,32.60
2019-04-10T15:47:16.174Z,32.60
2019-04-10T15:49:43.625Z,32.50
2019-04-10T15:52:15.819Z,32.60
2019-04-10T15:54:47.994Z,32.50
2019-04-10T15:57:20.172Z,32.50
2019-04-10T15:59:52.635Z,32.40
2019-04-10T16:02:25.869Z,32.40
2019-04-10T16:04:59.403Z,32.40
2019-04-10T16:07:31.676Z,32.30
2019-04-10T16:10:05.149Z,32.30
2019-04-10T16:12:37.672Z,32.30
2019-04-10T16:15:11.138Z,32.20
2019-04-10T16:17:44.036Z,32.20
2019-04-10T16:20:17.750Z,32.20
2019-04-10T16:22:51.455Z,32.10
2019-04-10T16:25:25.594Z,32.10
2019-04-10T16:28:17.953Z,32.00
2019-04-10T16:30:51.037Z,32.00
2019-04-10T16:33:23.451Z,32.00
2019-04-10T16:35:56.787Z,31.90
2019-04-10T16:38:28.965Z,31.80
2019-04-10T16:41:01.096Z,31.80
2019-04-10T16:43:33.737Z,31.80
2019-04-10T16:46:07.033Z,31.80
2019-04-10T16:48:40.701Z,31.80
2019-04-10T16:51:12.769Z,31.70
2019-04-10T16:53:45.499Z,31.70
2019-04-10T16:56:17.921Z,31.60
2019-04-10T16:58:50.300Z,31.60
2019-04-10T17:01:23.155Z,31.60
2019-04-10T17:03:55.421Z,31.60
2019-04-10T17:06:28.273Z,31.60
2019-04-10T17:09:00.620Z,31.50
2019-04-10T17:11:33.421Z,31.50
2019-04-10T17:14:06.720Z,31.50
2019-04-10T17:16:39.987Z,31.40
2019-04-10T17:19:12.129Z,31.40
2019-04-10T17:21:44.582Z,31.40
2019-04-10T17:24:18.189Z,31.40
2019-04-10T17:26:50.989Z,31.30
2019-04-10T17:29:25.027Z,31.30
2019-04-10T17:31:57.411Z,31.30
2019-04-10T17:34:30.514Z,31.30
2019-04-10T17:37:02.748Z,31.30
2019-04-10T17:39:35.557Z,31.20
2019-04-10T17:42:08.570Z,31.20
2019-04-10T17:44:42.195Z,31.20
2019-04-10T17:47:15.123Z,31.10
2019-04-10T17:49:47.718Z,31.10
2019-04-10T17:52:20.892Z,31.00
2019-04-10T17:54:53.421Z,31.00
2019-04-10T17:57:35.261Z,30.90
2019-04-10T17:59:59.539Z,30.90
2019-04-10T18:02:32.778Z,30.90
2019-04-10T18:05:06.435Z,30.90
2019-04-10T18:07:38.588Z,30.90
2019-04-10T18:10:12.709Z,30.80
2019-04-10T18:12:46.033Z,30.80
2019-04-10T18:15:19.868Z,30.80
2019-04-10T18:17:53.333Z,30.80
2019-04-10T18:20:26.255Z,30.70
2019-04-10T18:22:58.740Z,30.70
2019-04-10T18:25:30.980Z,30.70
2019-04-10T18:28:03.508Z,30.70
2019-04-10T18:30:37.150Z,30.60
2019-04-10T18:33:09.983Z,30.60
2019-04-10T18:35:42.813Z,30.60
2019-04-10T18:38:15.731Z,30.50
2019-04-10T18:40:58.246Z,30.50
2019-04-10T18:43:28.777Z,30.50
2019-04-10T18:46:07.869Z,30.50
2019-04-10T18:48:35.296Z,30.50
2019-04-10T18:51:09.492Z,30.40
2019-04-10T18:53:42.864Z,30.30
2019-04-10T18:56:15.249Z,30.30
2019-04-10T18:58:48.646Z,30.30
2019-04-10T19:01:23.017Z,30.20
2019-04-10T19:04:01.454Z,30.20
2019-04-10T19:06:32.294Z,30.20
2019-04-10T19:09:13.342Z,30.20
2019-04-10T19:11:38.595Z,30.10
2019-04-10T19:14:12.118Z,30.10
2019-04-10T19:16:44.357Z,30.10
2019-04-10T19:19:16.426Z,30.10
2019-04-10T19:21:48.720Z,30.00
2019-04-10T19:24:22.271Z,30.00
2019-04-10T19:26:55.740Z,30.00
2019-04-10T19:29:28.186Z,30.00
2019-04-10T19:32:03.410Z,29.90
2019-04-10T19:34:35.535Z,29.90
2019-04-10T19:37:08.382Z,29.90
2019-04-10T19:39:40.536Z,29.90
2019-04-10T19:42:13.260Z,29.80
2019-04-10T19:44:45.625Z,29.80
2019-04-10T19:47:20.491Z,29.80
2019-04-10T19:49:53.014Z,29.80
2019-04-10T19:52:26.461Z,29.80
2019-04-10T19:54:59.539Z,29.80
2019-04-10T19:57:31.753Z,29.70
2019-04-10T20:00:04.224Z,29.70
2019-04-10T20:02:37.179Z,29.70
2019-04-10T20:05:10.593Z,29.70
2019-04-10T20:07:43.108Z,29.70
2019-04-10T20:10:15.514Z,29.60
2019-04-10T20:12:48.794Z,29.60
2019-04-10T20:15:20.826Z,29.60
2019-04-10T20:17:54.552Z,29.60
2019-04-10T20:20:27.150Z,29.60
2019-04-10T20:22:59.277Z,29.60
2019-04-10T20:25:32.409Z,29.60
2019-04-10T20:28:04.705Z,29.60
2019-04-10T20:30:37.107Z,29.60
2019-04-10T20:33:10.449Z,29.60
2019-04-10T20:35:43.000Z,29.60
2019-04-10T20:38:15.557Z,29.60
2019-04-10T20:40:47.833Z,29.60
2019-04-10T20:43:20.602Z,29.60
2019-04-10T20:45:53.776Z,29.60
2019-04-10T20:48:28.656Z,29.50
2019-04-10T20:51:00.885Z,29.50
2019-04-10T20:53:33.782Z,29.50
2019-04-10T20:56:06.324Z,29.50
2019-04-10T20:58:38.519Z,29.50
2019-04-10T21:01:12.947Z,29.50
2019-04-10T21:03:45.445Z,29.50
2019-04-10T21:06:17.823Z,29.50
2019-04-10T21:08:50.653Z,29.40
2019-04-10T21:11:22.802Z,29.50
2019-04-10T21:14:14.007Z,29.40
2019-04-10T21:16:45.933Z,29.40
2019-04-10T21:19:20.656Z,29.40
2019-04-10T21:21:53.623Z,29.40
2019-04-10T21:24:25.622Z,29.40
2019-04-10T21:26:57.649Z,29.40
2019-04-10T21:29:31.979Z,29.30
2019-04-10T21:32:05.452Z,29.30
2019-04-10T21:34:39.273Z,29.30
2019-04-10T21:37:11.388Z,29.30
2019-04-10T21:39:43.799Z,29.30
2019-04-10T21:42:22.327Z,29.30
2019-04-10T21:44:51.298Z,29.30
2019-04-10T21:47:33.434Z,29.20
2019-04-10T21:50:07.438Z,29.20
2019-04-10T21:52:39.834Z,29.20
2019-04-10T21:55:12.911Z,29.20
2019-04-10T21:57:46.834Z,29.20
2019-04-10T22:00:21.444Z,29.10
2019-04-10T22:02:54.112Z,29.10
2019-04-10T22:05:26.618Z,29.10
2019-04-10T22:08:00.849Z,29.10
2019-04-10T22:10:34.291Z,29.10
2019-04-10T22:13:07.828Z,29.00
2019-04-10T22:15:41.493Z,29.00
2019-04-10T22:18:14.769Z,29.00
2019-04-10T22:20:47.972Z,29.00
2019-04-10T22:23:20.806Z,28.90
2019-04-10T22:25:54.203Z,29.00
2019-04-10T22:28:26.724Z,28.90
2019-04-10T22:31:00.179Z,28.90
2019-04-10T22:33:32.353Z,28.90
2019-04-10T22:36:04.687Z,28.80
2019-04-10T22:38:37.779Z,28.80
2019-04-10T22:41:20.840Z,28.80
2019-04-10T22:43:43.526Z,28.80
2019-04-10T22:46:15.575Z,28.80
2019-04-10T22:48:48.029Z,28.70
2019-04-10T22:51:21.380Z,28.70
2019-04-10T22:53:54.139Z,28.70
2019-04-10T22:56:26.711Z,28.60
2019-04-10T22:58:59.677Z,28.60
2019-04-10T23:01:31.978Z,28.60
2019-04-10T23:04:04.052Z,28.60
2019-04-10T23:06:37.302Z,28.50
2019-04-10T23:09:13.780Z,28.50
2019-04-10T23:11:46.881Z,28.60
2019-04-10T23:14:19.217Z,28.50
2019-04-10T23:16:52.584Z,28.60
2019-04-10T23:19:25.797Z,28.50
2019-04-10T23:21:57.822Z,28.50
2019-04-10T23:24:30.062Z,28.50
2019-04-10T23:27:03.791Z,28.60
2019-04-10T23:29:36.095Z,28.50
2019-04-10T23:32:08.659Z,28.50
2019-04-10T23:34:41.035Z,28.50
2019-04-10T23:37:13.380Z,28.50
2019-04-10T23:39:46.169Z,28.50
2019-04-10T23:42:19.117Z,28.50
2019-04-10T23:44:51.629Z,28.60
2019-04-10T23:47:24.264Z,28.60
2019-04-10T23:49:57.553Z,28.60
2019-04-10T23:52:30.114Z,28.60
2019-04-10T23:55:02.370Z,28.60
2019-04-10T23:57:35.623Z,28.70
